Time;durP1;ratioP1;P1;durP2;ratioP2;P2;SDS_P1;SDS_P2;PMS_P1;PMS_P2;Temp;Humidity;BMP_temperature;BMP_pressure;BME280_temperature;BME280_humidity;BME280_pressure;Samples;Min_cycle;Max_cycle;Signal;HPM_P1;HPM_P2
2022/09/21 00:01:27;;;;;;;0.30;0.20;;;11.10;99.90;;;11.83;82.76;101495.22;5030468;28;21235;-64
2022/09/21 00:03:58;;;;;;;0.30;0.20;;;11.10;99.90;;;11.84;81.53;101492.50;5031252;28;20632;-65
2022/09/21 00:06:30;;;;;;;0.30;0.20;;;11.10;99.90;;;11.82;83.11;101491.75;5030732;28;20738;-63
2022/09/21 00:08:57;;;;;;;0.30;0.20;;;11.10;99.90;;;11.80;82.83;101492.81;5031458;28;20621;-65
2022/09/21 00:11:31;;;;;;;0.30;0.30;;;11.10;99.90;;;11.74;82.56;101501.03;5031359;28;20629;-66
2022/09/21 00:14:03;;;;;;;0.30;0.20;;;11.00;99.90;;;11.75;83.10;101500.94;5031356;28;21043;-67
2022/09/21 00:16:30;;;;;;;0.30;0.20;;;11.00;99.90;;;11.70;82.83;101503.00;5010499;28;21252;-65
2022/09/21 00:18:59;;;;;;;0.30;0.30;;;10.90;99.90;;;11.68;83.30;101502.25;5025988;28;21218;-65
2022/09/21 00:21:27;;;;;;;0.30;0.20;;;10.90;99.90;;;11.69;83.42;101496.94;5011560;28;21287;-65
2022/09/21 00:23:54;;;;;;;0.30;0.20;;;10.90;99.90;;;11.41;84.79;101507.41;5028478;28;20632;-65
2022/09/21 00:26:25;;;;;;;0.30;0.20;;;10.80;99.90;;;11.53;84.09;101506.66;5015463;28;21029;-66
2022/09/21 00:28:58;;;;;;;0.30;0.20;;;10.80;99.90;;;11.49;84.55;101506.94;5026317;28;20686;-63
2022/09/21 00:31:26;;;;;;;0.30;0.20;;;10.80;99.90;;;11.50;84.98;101509.44;5002915;28;20694;-65
2022/09/21 00:33:54;;;;;;;0.47;0.47;;;10.80;99.90;;;11.35;85.21;101509.56;5027017;28;20621;-65
2022/09/21 00:36:23;;;;;;;0.30;0.20;;;10.80;99.90;;;11.39;85.24;101509.25;5029825;28;21043;-66
2022/09/21 00:38:57;;;;;;;0.80;0.57;;;10.70;99.90;;;11.27;85.57;101509.16;5030857;28;21369;-65
2022/09/21 00:41:26;;;;;;;0.30;0.30;;;10.70;99.90;;;11.32;84.98;101513.19;5038965;28;20721;-65
2022/09/21 00:44:25;;;;;;;0.30;0.30;;;10.70;99.90;;;11.19;86.28;101509.66;5035961;28;20629;-65
2022/09/21 00:46:55;;;;;;;0.30;0.23;;;10.60;99.90;;;11.17;86.18;101510.66;5028825;28;20632;-65
2022/09/21 00:49:23;;;;;;;0.30;0.20;;;10.60;99.90;;;11.27;86.12;101515.25;5028930;28;20640;-65
2022/09/21 00:51:52;;;;;;;0.30;0.30;;;10.60;99.90;;;11.24;86.65;101517.22;5029066;28;20679;-65
2022/09/21 00:54:31;;;;;;;0.30;0.20;;;10.60;99.90;;;11.24;86.47;101506.75;5028879;28;20637;-66
2022/09/21 00:57:00;;;;;;;0.30;0.30;;;10.60;99.90;;;11.23;85.56;101512.91;5029735;28;20609;-65
2022/09/21 00:59:29;;;;;;;0.30;0.30;;;10.60;99.90;;;11.24;85.41;101518.06;5031663;28;20632;-64
2022/09/21 01:01:58;;;;;;;0.30;0.20;;;10.60;99.90;;;11.26;85.54;101520.56;5034937;28;21230;-65
2022/09/21 01:04:27;;;;;;;0.30;0.20;;;10.60;99.90;;;11.24;85.43;101512.81;5029525;28;20627;-66
2022/09/21 01:06:57;;;;;;;0.30;0.20;;;10.50;99.90;;;11.29;85.16;101513.38;5030090;28;20636;-66
2022/09/21 01:09:24;;;;;;;0.30;0.20;;;10.60;99.90;;;11.27;85.82;101517.00;5029651;28;20605;-65
2022/09/21 01:12:19;;;;;;;0.30;0.20;;;10.50;99.90;;;11.24;86.28;101517.22;5015623;28;20629;-65
2022/09/21 01:15:29;;;;;;;0.30;0.20;;;10.50;99.90;;;11.27;85.47;101522.22;5029941;28;20683;-65
2022/09/21 01:18:37;;;;;;;0.30;0.20;;;10.60;99.90;;;11.25;85.18;101527.56;5030287;28;20624;-65
2022/09/21 01:21:17;;;;;;;0.30;0.23;;;10.60;99.90;;;11.28;85.50;101523.94;5029983;28;20659;-65
2022/09/21 01:24:11;;;;;;;0.30;0.20;;;10.60;99.90;;;11.31;85.33;101524.56;5029927;28;20608;-66
2022/09/21 01:26:56;;;;;;;0.30;0.20;;;10.60;99.90;;;11.38;85.19;101515.44;5010356;28;20724;-65
2022/09/21 01:29:49;;;;;;;0.30;0.20;;;10.60;99.90;;;11.31;85.18;101515.88;5020941;28;20636;-65
2022/09/21 01:32:36;;;;;;;0.70;0.70;;;10.60;99.90;;;11.27;85.96;101517.00;5050347;28;21037;-65
2022/09/21 01:35:17;;;;;;;0.30;0.20;;;10.60;99.90;;;11.28;85.44;101516.09;5038826;28;20637;-65
2022/09/21 01:38:11;;;;;;;0.30;0.20;;;10.60;99.90;;;11.33;85.37;101511.44;5028845;28;20694;-65
2022/09/21 01:40:43;;;;;;;0.30;0.30;;;10.60;99.90;;;11.23;86.20;101518.97;5036459;28;20714;-66
2022/09/21 01:43:34;;;;;;;0.30;0.20;;;10.60;99.90;;;11.31;85.74;101515.88;5042849;28;21187;-65
2022/09/21 01:46:03;;;;;;;0.30;0.20;;;10.60;99.90;;;11.25;85.59;101513.66;5028462;28;21031;-65
2022/09/21 01:48:39;;;;;;;0.30;0.20;;;10.60;99.90;;;11.20;85.81;101518.31;5028167;28;20633;-65
2022/09/21 01:51:09;;;;;;;0.30;0.20;;;10.60;99.90;;;11.19;86.26;101517.47;5029220;28;20979;-65
2022/09/21 01:54:06;;;;;;;0.30;0.20;;;10.60;99.90;;;11.21;85.87;101526.06;5027905;28;21128;-65
2022/09/21 01:56:48;;;;;;;0.30;0.20;;;10.60;99.90;;;11.19;86.88;101522.72;5029537;28;20621;-66
2022/09/21 01:59:48;;;;;;;0.30;0.20;;;10.50;99.90;;;11.24;85.36;101525.03;5037728;28;21210;-65
2022/09/21 02:02:25;;;;;;;0.30;0.20;;;10.50;99.90;;;11.24;85.31;101517.22;5031727;28;20636;-66
2022/09/21 02:04:52;;;;;;;0.30;0.20;;;10.50;99.90;;;11.21;85.75;101522.59;5048291;28;20685;-65
2022/09/21 02:07:19;;;;;;;0.30;0.20;;;10.50;99.90;;;11.17;85.41;101518.50;5024519;28;20633;-66
2022/09/21 02:09:47;;;;;;;0.30;0.20;;;10.50;99.90;;;11.16;85.10;101522.06;5033151;28;20714;-65
2022/09/21 02:12:14;;;;;;;0.30;0.20;;;10.50;99.90;;;11.17;85.37;101521.13;5024373;28;20621;-66
2022/09/21 02:14:45;;;;;;;0.30;0.20;;;10.40;99.90;;;11.04;85.31;101520.16;5015767;28;20697;-65
2022/09/21 02:18:03;;;;;;;0.30;0.20;;;10.40;99.90;;;11.08;86.19;101514.66;5021296;28;20691;-65
2022/09/21 02:20:39;;;;;;;0.30;0.20;;;10.30;99.90;;;10.98;85.94;101518.78;5030352;28;20701;-65
2022/09/21 02:23:48;;;;;;;0.30;0.20;;;10.30;99.90;;;10.87;87.22;101516.78;5049532;28;20612;-65
2022/09/21 02:26:25;;;;;;;0.30;0.20;;;10.30;99.90;;;10.92;87.15;101519.13;5007837;28;20664;-65
2022/09/21 02:29:10;;;;;;;0.30;0.20;;;10.30;99.90;;;10.78;87.50;101512.09;5033250;28;20659;-65
2022/09/21 02:31:52;;;;;;;1.17;1.07;;;10.20;99.90;;;10.84;87.53;101516.97;5041609;28;20671;-65
2022/09/21 02:34:38;;;;;;;0.30;0.30;;;10.20;99.90;;;10.88;87.13;101517.66;5045268;28;20676;-64
2022/09/21 02:37:30;;;;;;;0.30;0.20;;;10.20;99.90;;;10.77;87.15;101518.28;5035904;28;20679;-66
2022/09/21 02:40:24;;;;;;;0.30;0.20;;;10.20;99.90;;;10.65;87.51;101516.38;5029316;28;20674;-65
2022/09/21 02:42:58;;;;;;;0.30;0.20;;;10.10;99.90;;;10.62;87.79;101505.28;5028372;28;20987;-64
2022/09/21 02:45:33;;;;;;;0.30;0.20;;;10.00;99.90;;;10.62;86.87;101520.94;5027776;28;20665;-66
2022/09/21 02:48:13;;;;;;;0.30;0.30;;;10.00;99.90;;;10.57;85.83;101512.50;5028234;28;21067;-67
2022/09/21 02:51:03;;;;;;;0.30;0.23;;;10.00;99.90;;;10.49;86.23;101515.59;5007876;28;21197;-67
2022/09/21 02:53:35;;;;;;;0.30;0.30;;;9.90;99.90;;;10.37;87.59;101512.84;5012798;28;20637;-67
2022/09/21 02:56:06;;;;;;;1.07;1.07;;;9.80;99.90;;;10.37;87.82;101516.25;5039904;28;20631;-66
2022/09/21 02:58:43;;;;;;;0.30;0.20;;;9.80;99.90;;;10.43;86.62;101515.09;5030748;28;20663;-66
2022/09/21 03:01:12;;;;;;;0.30;0.30;;;9.70;99.90;;;10.44;87.14;101512.38;5047519;28;20689;-66
2022/09/21 03:03:40;;;;;;;0.30;0.20;;;9.70;99.90;;;10.42;87.14;101509.03;5030803;28;20631;-67
2022/09/21 03:06:07;;;;;;;0.40;0.40;;;9.70;99.90;;;10.32;88.06;101507.03;5032687;28;20664;-66
2022/09/21 03:08:34;;;;;;;0.30;0.20;;;9.60;99.90;;;10.38;87.57;101507.53;5032023;28;20670;-65
2022/09/21 03:11:01;;;;;;;0.30;0.20;;;9.60;99.90;;;10.41;87.88;101507.38;5026641;28;21325;-63
2022/09/21 03:13:28;;;;;;;0.30;0.30;;;9.60;99.90;;;10.36;87.76;101501.56;5032195;28;21186;-66
2022/09/21 03:16:02;;;;;;;0.30;0.20;;;9.60;99.90;;;10.36;88.33;101512.00;5032051;28;21248;-66
2022/09/21 03:18:29;;;;;;;0.30;0.20;;;9.60;99.90;;;10.29;88.99;101509.81;5032429;28;20646;-66
2022/09/21 03:20:57;;;;;;;0.30;0.20;;;9.60;99.90;;;10.32;88.58;101513.09;5046186;28;20650;-66
2022/09/21 03:23:24;;;;;;;0.30;0.20;;;9.60;99.90;;;10.37;88.12;101520.66;5032687;28;20644;-66
2022/09/21 03:25:51;;;;;;;0.30;0.20;;;9.60;99.90;;;10.34;88.68;101516.47;5031048;28;20703;-66
2022/09/21 03:28:18;;;;;;;0.30;0.20;;;9.60;99.90;;;10.25;88.50;101519.56;5030416;28;20693;-66
2022/09/21 03:30:48;;;;;;;0.30;0.20;;;9.60;99.90;;;10.28;88.84;101522.03;5017972;28;20706;-66
2022/09/21 03:33:17;;;;;;;0.30;0.30;;;9.60;99.90;;;10.23;88.88;101524.03;5024811;28;20747;-66
2022/09/21 03:35:47;;;;;;;0.30;0.30;;;9.60;99.90;;;10.28;88.66;101522.03;5031018;28;20623;-66
2022/09/21 03:38:15;;;;;;;0.30;0.20;;;9.50;99.90;;;10.38;88.99;101523.19;5031563;28;21001;-65
2022/09/21 03:41:19;;;;;;;0.30;0.20;;;9.60;99.90;;;10.20;91.11;101518.97;5032287;28;20697;-67
2022/09/21 03:48:27;;;;;;;0.30;0.20;;;9.60;99.90;;;10.14;93.19;101525.41;5020489;28;20636;-67
2022/09/21 03:50:58;;;;;;;0.30;0.30;;;9.60;99.90;;;10.16;92.95;101527.91;5017763;28;20736;-65
2022/09/21 03:53:25;;;;;;;0.77;0.70;;;9.60;99.90;;;10.17;92.96;101529.59;5030144;28;21036;-66
2022/09/21 03:55:56;;;;;;;0.30;0.20;;;9.60;99.90;;;10.14;93.65;101534.97;5046676;28;20621;-66
2022/09/21 03:58:27;;;;;;;0.30;0.20;;;9.60;99.90;;;10.13;92.93;101533.31;5051145;28;20618;-68
2022/09/21 04:01:02;;;;;;;0.30;0.20;;;9.60;99.90;;;10.02;94.50;101527.81;5030280;28;21018;-66
2022/09/21 04:03:29;;;;;;;0.30;0.20;;;9.60;99.90;;;10.11;93.66;101535.16;5028940;28;20639;-66
2022/09/21 04:05:56;;;;;;;0.30;0.20;;;9.50;99.90;;;10.15;92.96;101528.84;5032380;28;20738;-67
2022/09/21 04:08:23;;;;;;;0.30;0.20;;;9.60;99.90;;;10.17;93.41;101531.38;5028884;28;20975;-65
2022/09/21 04:10:55;;;;;;;0.30;0.20;;;9.60;99.90;;;10.14;93.63;101535.84;5032112;28;20672;-66
2022/09/21 04:13:23;;;;;;;0.30;0.20;;;9.60;99.90;;;10.25;93.01;101532.63;5031194;28;20670;-68
2022/09/21 04:15:51;;;;;;;0.30;0.20;;;9.60;99.90;;;10.30;93.71;101532.38;5013029;28;20641;-67
2022/09/21 04:18:21;;;;;;;0.30;0.20;;;9.70;99.90;;;10.20;93.27;101534.63;5024109;28;20641;-66
2022/09/21 04:20:51;;;;;;;0.30;0.20;;;9.70;99.90;;;10.16;94.01;101537.53;5031538;28;20698;-66
2022/09/21 04:23:19;;;;;;;0.30;0.20;;;9.60;99.90;;;10.11;94.60;101540.38;5028550;28;20643;-66
2022/09/21 04:25:52;;;;;;;0.30;0.20;;;9.60;99.90;;;10.17;94.41;101541.81;5026176;28;21216;-66
2022/09/21 04:28:19;;;;;;;0.30;0.20;;;9.50;99.90;;;10.08;94.75;101541.34;5021024;28;20689;-67
2022/09/21 04:30:46;;;;;;;0.70;0.70;;;9.50;99.90;;;10.05;94.72;101544.13;5030674;28;20713;-66
2022/09/21 04:33:13;;;;;;;0.30;0.20;;;9.50;99.90;;;9.92;95.37;101550.94;5032560;28;20648;-67
2022/09/21 04:35:41;;;;;;;0.30;0.30;;;9.50;99.90;;;9.84;96.13;101553.13;5048435;28;21171;-66
2022/09/21 04:38:08;;;;;;;0.30;0.20;;;9.40;99.90;;;9.87;96.35;101552.13;5030820;28;20630;-67
2022/09/21 04:40:35;;;;;;;0.30;0.20;;;9.50;99.90;;;9.82;97.06;101544.56;5031391;28;20841;-66
2022/09/21 04:43:02;;;;;;;0.30;0.20;;;9.40;99.90;;;9.87;95.93;101554.72;5027255;28;20629;-66
2022/09/21 04:45:29;;;;;;;0.30;0.30;;;9.40;99.90;;;9.89;96.19;101555.47;5030313;28;20636;-66
2022/09/21 04:47:55;;;;;;;0.30;0.30;;;9.40;99.90;;;9.86;96.29;101558.28;5030654;28;20643;-66
2022/09/21 04:50:22;;;;;;;0.30;0.20;;;9.40;99.90;;;9.98;95.12;101558.44;5029324;28;20990;-66
2022/09/21 04:52:49;;;;;;;0.30;0.20;;;9.40;99.90;;;10.01;95.19;101567.84;5031062;28;20604;-66
2022/09/21 04:55:16;;;;;;;0.30;0.30;;;9.40;99.90;;;9.92;95.24;101560.53;5029484;28;20646;-66
2022/09/21 04:57:43;;;;;;;0.30;0.20;;;9.40;99.90;;;9.91;95.27;101564.91;5030786;28;21026;-66
2022/09/21 05:00:10;;;;;;;0.30;0.20;;;9.30;99.90;;;9.88;95.00;101570.28;5030054;28;20660;-66
2022/09/21 05:02:37;;;;;;;0.30;0.20;;;9.30;99.90;;;9.84;95.29;101567.91;5030892;28;21249;-66
2022/09/21 05:05:04;;;;;;;0.30;0.30;;;9.30;99.90;;;9.92;93.44;101566.56;5029878;28;20611;-66
2022/09/21 05:07:31;;;;;;;0.30;0.20;;;9.30;99.90;;;9.88;93.35;101570.28;5029838;28;21084;-66
2022/09/21 05:10:04;;;;;;;0.30;0.20;;;9.20;99.90;;;9.90;92.83;101573.63;5030200;28;21055;-66
2022/09/21 05:12:32;;;;;;;0.30;0.20;;;9.20;99.90;;;9.80;94.05;101576.81;5029506;28;20629;-66
2022/09/21 05:14:59;;;;;;;0.30;0.20;;;9.20;99.90;;;9.77;93.60;101588.28;5028731;28;21174;-68
2022/09/21 05:17:26;;;;;;;0.30;0.20;;;9.20;99.90;;;9.85;92.84;101580.03;5029349;28;20686;-66
2022/09/21 05:19:53;;;;;;;0.30;0.30;;;9.20;99.90;;;9.84;92.50;101580.94;5028679;28;20699;-66
2022/09/21 05:22:20;;;;;;;0.30;0.20;;;9.20;99.90;;;9.90;91.43;101578.03;5029640;28;20650;-67
2022/09/21 05:24:47;;;;;;;0.70;0.70;;;9.20;99.90;;;9.78;92.29;101584.75;5041778;28;20633;-67
2022/09/21 05:27:14;;;;;;;0.30;0.20;;;9.20;99.90;;;9.92;92.31;101581.41;5010632;28;20657;-66
2022/09/21 05:29:41;;;;;;;0.30;0.20;;;9.20;99.90;;;9.97;92.06;101590.66;5015163;28;21011;-66
2022/09/21 05:32:43;;;;;;;0.30;0.20;;;9.30;99.90;;;9.96;92.39;101588.13;5013839;28;20638;-64
2022/09/21 05:35:34;;;;;;;0.30;0.20;;;9.30;99.90;;;10.08;92.14;101585.69;5036342;28;20622;-66
2022/09/21 05:38:15;;;;;;;0.30;0.30;;;9.40;99.90;;;10.05;92.30;101585.84;5028042;28;20694;-67
2022/09/21 05:40:43;;;;;;;0.30;0.20;;;9.40;99.90;;;10.18;91.65;101587.84;5028581;28;20666;-66
2022/09/21 05:43:11;;;;;;;0.33;0.23;;;9.40;99.90;;;10.25;91.53;101591.75;5029803;28;21203;-67
2022/09/21 05:45:43;;;;;;;0.30;0.30;;;9.50;99.90;;;10.25;91.91;101587.41;5029578;28;20662;-67
2022/09/21 05:48:32;;;;;;;0.30;0.23;;;9.60;99.90;;;10.42;91.96;101595.13;5025126;28;20648;-66
2022/09/21 05:51:42;;;;;;;0.30;0.20;;;9.70;99.90;;;11.01;89.43;101598.72;5028158;28;20691;-65
2022/09/21 05:54:20;;;;;;;0.30;0.20;;;10.00;99.90;;;11.79;85.71;101609.66;5016453;28;21124;-66
2022/09/21 05:57:12;;;;;;;0.30;0.20;;;10.60;99.90;;;12.80;80.72;101607.50;5028869;28;20671;-66
2022/09/21 06:00:10;;;;;;;0.30;0.20;;;11.40;99.90;;;13.90;75.49;101606.00;5039543;28;21036;-67
2022/09/21 06:03:25;;;;;;;0.30;0.20;;;12.10;99.90;;;14.96;70.18;101613.16;5045318;28;20620;-66
2022/09/21 06:05:52;;;;;;;0.30;0.30;;;13.00;99.90;;;15.84;66.76;101618.63;5036974;28;20620;-67
2022/09/21 06:08:19;;;;;;;0.80;0.77;;;13.80;99.90;;;16.68;63.44;101613.53;5030386;28;21042;-67
2022/09/21 06:10:46;;;;;;;0.77;0.60;;;14.50;99.90;;;17.28;61.10;101622.59;5029368;28;20645;-67
2022/09/21 06:13:13;;;;;;;0.30;0.30;;;15.10;99.90;;;17.81;59.06;101616.22;5011824;28;21254;-67
2022/09/21 06:15:41;;;;;;;0.30;0.30;;;15.60;99.90;;;18.54;56.90;101621.19;5030600;28;20624;-67
2022/09/21 06:18:08;;;;;;;0.30;0.30;;;16.10;99.90;;;19.09;55.84;101623.13;5029216;28;20640;-66
2022/09/21 06:20:41;;;;;;;0.30;0.30;;;16.50;99.90;;;19.11;54.30;101622.97;5012675;28;21076;-67
2022/09/21 06:23:11;;;;;;;0.30;0.30;;;16.80;99.90;;;19.48;53.59;101628.38;5016925;28;20637;-67
2022/09/21 06:25:38;;;;;;;0.30;0.30;;;17.00;99.90;;;19.70;52.91;101631.50;5029458;28;20621;-65
2022/09/21 06:28:09;;;;;;;1.33;1.33;;;17.30;99.90;;;20.16;51.68;101629.78;5029468;28;20644;-64
2022/09/21 06:30:37;;;;;;;0.30;0.30;;;17.70;99.90;;;20.41;50.43;101629.09;5037825;28;20660;-65
2022/09/21 06:33:06;;;;;;;0.30;0.30;;;18.00;99.90;;;20.40;50.40;101628.25;5031059;28;21275;-66
2022/09/21 06:35:35;;;;;;;0.30;0.30;;;18.20;99.90;;;21.11;48.95;101629.09;5023783;28;20716;-64
2022/09/21 06:38:06;;;;;;;0.30;0.30;;;18.50;99.90;;;21.43;47.19;101628.50;5032326;28;20624;-65
2022/09/21 06:40:36;;;;;;;0.30;0.30;;;18.90;99.90;;;21.84;46.43;101627.78;5032287;28;20714;-65
2022/09/21 06:43:04;;;;;;;0.30;0.30;;;19.20;99.90;;;22.85;45.47;101629.41;5032019;28;20644;-66
2022/09/21 06:45:31;;;;;;;0.30;0.30;;;19.80;99.90;;;23.56;43.15;101629.50;5031627;28;20633;-66
2022/09/21 06:47:58;;;;;;;0.30;0.30;;;20.40;99.90;;;24.40;42.14;101638.53;5028883;28;20665;-67
2022/09/21 06:50:25;;;;;;;0.30;0.30;;;21.20;99.90;;;25.42;39.46;101632.75;5039268;28;20648;-68
2022/09/21 06:52:53;;;;;;;1.00;0.93;;;21.80;97.70;;;25.81;38.11;101638.66;5067059;28;21221;-65
2022/09/21 06:55:20;;;;;;;0.30;0.30;;;22.20;95.90;;;26.41;37.89;101641.09;5047221;28;20629;-65
2022/09/21 06:57:47;;;;;;;0.30;0.30;;;22.70;95.30;;;26.10;37.82;101638.69;5030992;28;21271;-65
2022/09/21 07:00:14;;;;;;;0.30;0.30;;;22.80;93.50;;;26.82;36.86;101644.00;5039506;28;21335;-65
2022/09/21 07:02:44;;;;;;;0.60;0.60;;;23.10;92.80;;;27.41;35.72;101640.00;5046114;28;20706;-65
2022/09/21 07:05:11;;;;;;;0.30;0.30;;;23.70;92.10;;;28.04;34.33;101644.31;5034811;28;20988;-65
2022/09/21 07:07:39;;;;;;;0.30;0.30;;;24.30;90.20;;;27.65;34.63;101636.84;5031394;28;20656;-65
2022/09/21 07:10:07;;;;;;;2.23;1.17;;;24.20;89.10;;;27.56;35.01;101638.03;5034265;28;20660;-65
2022/09/21 07:12:41;;;;;;;0.30;0.30;;;24.20;87.30;;;27.11;35.56;101637.69;5040968;28;21285;-65
2022/09/21 07:15:09;;;;;;;0.57;0.57;;;24.20;86.00;;;27.67;35.41;101636.66;5041302;28;20687;-68
2022/09/21 07:17:38;;;;;;;0.40;0.40;;;24.60;85.90;;;28.30;34.32;101640.91;5035052;28;20629;-66
2022/09/21 07:20:06;;;;;;;0.50;0.50;;;25.00;84.40;;;28.31;34.52;101643.38;5030218;28;20652;-65
2022/09/21 07:22:34;;;;;;;0.30;0.30;;;25.30;82.50;;;28.47;33.91;101644.88;5033179;28;20797;-68
2022/09/21 07:25:03;;;;;;;0.30;0.30;;;25.60;80.20;;;28.38;34.00;101649.59;5046250;28;20682;-68
2022/09/21 07:27:32;;;;;;;0.30;0.30;;;25.70;79.10;;;27.37;35.20;101637.91;5052468;28;20656;-65
2022/09/21 07:29:59;;;;;;;1.07;1.00;;;25.00;79.00;;;25.78;37.90;101632.88;5034769;28;21100;-65
2022/09/21 07:32:26;;;;;;;0.40;0.40;;;23.90;81.70;;;25.40;38.59;101640.94;5043890;28;21145;-67
2022/09/21 07:34:55;;;;;;;0.30;0.30;;;23.30;83.70;;;25.51;38.42;101637.03;5044262;28;20683;-64
2022/09/21 07:40:04;;;;;;;0.30;0.30;;;23.70;82.90;;;26.47;37.02;101645.69;5353868;22;20682;-64
2022/09/21 07:42:31;;;;;;;0.30;0.30;;;24.20;82.10;;;27.38;35.96;101651.13;4988551;28;20670;-63
2022/09/21 07:44:58;;;;;;;0.30;0.30;;;24.90;80.60;;;28.36;34.22;101651.66;4991700;28;20639;-64
2022/09/21 07:47:32;;;;;;;0.30;0.30;;;25.70;78.30;;;28.73;33.74;101654.88;4973037;28;20656;-63
2022/09/21 07:49:59;;;;;;;0.30;0.30;;;26.10;76.70;;;28.95;33.40;101650.97;4985940;28;20711;-63
2022/09/21 07:52:27;;;;;;;0.30;0.30;;;26.40;75.30;;;28.61;33.53;101648.44;4989450;28;20634;-65
2022/09/21 07:54:53;;;;;;;0.30;0.30;;;26.40;75.40;;;28.87;33.68;101656.53;4983873;28;21006;-64
2022/09/21 08:00:08;;;;;;;0.30;0.30;;;26.70;72.60;;;29.98;32.15;101648.38;4988656;28;21245;-65
2022/09/21 08:02:34;;;;;;;0.30;0.30;;;27.30;72.20;;;30.26;31.12;101646.16;4990785;28;20618;-65
2022/09/21 08:05:01;;;;;;;0.70;0.70;;;27.60;70.50;;;29.90;31.35;101649.44;4987797;28;21718;-65
2022/09/21 08:07:28;;;;;;;0.30;0.30;;;27.60;69.60;;;30.13;31.06;101651.66;4990775;28;20662;-66
2022/09/21 08:09:55;;;;;;;0.30;0.30;;;27.50;68.90;;;31.29;29.15;101651.09;4989152;28;20693;-65
2022/09/21 08:12:22;;;;;;;0.30;0.30;;;28.10;67.20;;;32.49;27.63;101647.69;4974065;28;21185;-65
2022/09/21 08:14:49;;;;;;;0.30;0.30;;;28.90;66.40;;;33.52;26.81;101642.72;4990058;28;20635;-66
2022/09/21 08:17:16;;;;;;;0.77;0.77;;;29.40;64.40;;;34.60;24.99;101649.00;4991393;28;20607;-66
2022/09/21 08:19:43;;;;;;;3.60;1.23;;;30.20;62.10;;;34.66;24.70;101644.47;4990157;28;20662;-66
2022/09/21 08:22:11;;;;;;;0.30;0.30;;;30.30;60.50;;;35.82;23.44;101644.41;4992301;28;20972;-65
2022/09/21 08:24:39;;;;;;;0.30;0.30;;;30.90;60.00;;;35.95;23.61;101649.44;5006081;28;20643;-66
2022/09/21 08:27:07;;;;;;;0.40;0.40;;;31.10;58.90;;;37.38;21.99;101651.38;4992609;28;20728;-66
2022/09/21 08:29:35;;;;;;;0.33;0.33;;;32.00;58.30;;;38.21;21.49;101644.16;4989118;28;20749;-66
2022/09/21 08:32:02;;;;;;;0.30;0.30;;;32.60;56.70;;;38.86;20.97;101649.72;4991907;28;20594;-66
2022/09/21 08:47:40;;;;;;;0.30;0.30;;;35.00;50.20;;;42.85;16.59;101648.03;4990474;28;20920;-66
2022/09/21 08:50:29;;;;;;;0.40;0.40;;;35.30;49.80;;;42.13;17.49;101642.00;4957928;28;20687;-66
2022/09/21 08:53:03;;;;;;;0.40;0.40;;;35.40;48.90;;;42.90;16.87;101645.19;4987352;28;20628;-67
2022/09/21 08:55:30;;;;;;;0.40;0.40;;;36.00;48.20;;;44.13;16.27;101651.56;4991439;28;20728;-66
2022/09/21 08:57:59;;;;;;;0.50;0.50;;;36.70;47.80;;;44.91;15.61;101651.03;4988226;28;20631;-66
2022/09/21 09:00:28;;;;;;;0.40;0.40;;;37.70;46.40;;;44.21;15.82;101642.56;4988954;28;20666;-66
2022/09/21 09:03:14;;;;;;;0.53;0.53;;;37.70;46.30;;;45.53;15.45;101635.28;5000639;28;20822;-66
2022/09/21 09:05:52;;;;;;;0.40;0.40;;;38.30;45.30;;;46.37;14.29;101639.31;4977229;28;20690;-67
2022/09/21 09:08:36;;;;;;;0.40;0.40;;;38.90;44.60;;;46.16;14.39;101632.00;4969736;28;20663;-65
2022/09/21 09:11:22;;;;;;;0.40;0.40;;;38.80;43.90;;;47.15;13.44;101634.47;4990805;28;20591;-66
2022/09/21 09:14:17;;;;;;;0.40;0.40;;;39.30;43.30;;;47.29;13.37;101626.75;4989101;28;20638;-66
2022/09/21 09:17:29;;;;;;;0.40;0.40;;;39.60;42.90;;;47.14;13.41;101624.53;4991276;28;21169;-66
2022/09/21 09:20:03;;;;;;;0.40;0.40;;;39.70;42.40;;;47.95;12.86;101620.34;4986698;28;21043;-66
2022/09/21 09:22:39;;;;;;;0.40;0.40;;;40.30;41.80;;;47.47;13.07;101618.03;4990459;28;21172;-67
2022/09/21 09:25:18;;;;;;;0.40;0.40;;;40.00;41.50;;;48.61;12.58;101614.88;4988567;28;20638;-67
2022/09/21 09:27:49;;;;;;;0.40;0.40;;;40.80;41.30;;;48.44;12.72;101617.78;4991111;28;20673;-66
2022/09/21 09:30:24;;;;;;;0.40;0.40;;;40.60;41.00;;;48.04;13.02;101609.19;4985985;28;20663;-65
2022/09/21 09:33:17;;;;;;;0.40;0.40;;;40.30;40.90;;;49.07;12.40;101613.69;4999822;28;20628;-65
2022/09/21 09:36:05;;;;;;;0.40;0.40;;;40.90;40.60;;;48.70;12.04;101605.31;4989157;28;20701;-66
2022/09/21 09:39:14;;;;;;;0.40;0.40;;;41.10;39.70;;;48.59;11.93;101603.31;4988983;28;20654;-65
2022/09/21 09:42:05;;;;;;;0.53;0.53;;;40.90;39.50;;;49.27;11.58;101610.81;4979549;28;20642;-67
2022/09/21 09:44:53;;;;;;;0.40;0.40;;;41.30;39.50;;;50.22;11.08;101602.66;4989232;28;20618;-66
2022/09/21 09:47:41;;;;;;;0.40;0.40;;;41.80;39.00;;;49.98;11.57;101596.38;4988733;28;20645;-64
2022/09/21 09:50:25;;;;;;;0.40;0.40;;;42.10;38.40;;;49.25;11.45;101598.47;4986751;28;20666;-66
2022/09/21 09:53:17;;;;;;;0.40;0.40;;;41.60;38.60;;;48.83;11.93;101593.13;4989631;28;20633;-65
2022/09/21 09:55:49;;;;;;;0.40;0.40;;;41.80;38.20;;;49.83;11.05;101594.38;4987900;28;20651;-64
2022/09/21 09:58:47;;;;;;;0.80;0.80;;;42.00;38.00;;;48.84;12.08;101591.16;4989757;28;20674;-65
2022/09/21 10:01:41;;;;;;;0.40;0.40;;;41.30;38.00;;;48.41;11.82;101585.25;4987257;28;20682;-65
2022/09/21 10:04:16;;;;;;;0.40;0.40;;;41.10;38.00;;;49.12;11.34;101578.22;5006286;28;21280;-65
2022/09/21 10:06:43;;;;;;;0.40;0.40;;;41.40;37.90;;;48.34;11.77;101579.47;4990537;28;20757;-66
2022/09/21 10:09:33;;;;;;;0.40;0.40;;;40.60;37.80;;;47.60;12.21;101566.41;4993321;28;20654;-65
2022/09/21 10:12:24;;;;;;;0.57;0.57;;;40.50;37.90;;;48.45;11.98;101573.19;4979081;28;21042;-65
2022/09/21 10:14:54;;;;;;;0.40;0.40;;;40.70;38.20;;;48.47;11.90;101575.63;4985558;28;20982;-65
2022/09/21 10:17:24;;;;;;;0.40;0.40;;;40.70;38.00;;;48.00;11.76;101567.56;4993106;28;20650;-66
2022/09/21 10:20:03;;;;;;;0.40;0.40;;;40.20;37.80;;;47.04;12.29;101564.13;4978988;28;20670;-65
2022/09/21 10:22:30;;;;;;;0.40;0.40;;;39.60;38.20;;;46.27;12.72;101567.06;5008814;28;20689;-65
2022/09/21 10:25:04;;;;;;;0.90;0.90;;;38.90;38.70;;;44.81;13.83;101566.75;4993152;28;20623;-64
2022/09/21 10:27:42;;;;;;;0.40;0.40;;;37.90;39.20;;;42.98;15.25;101553.88;5006966;28;20740;-65
2022/09/21 10:30:28;;;;;;;0.40;0.40;;;37.10;40.00;;;38.62;18.13;101548.50;4994156;28;20679;-64
2022/09/21 10:32:57;;;;;;;1.13;1.07;;;34.80;41.00;;;35.51;21.18;101539.19;4983196;28;20626;-65
2022/09/21 10:35:25;;;;;;;0.40;0.30;;;32.60;43.00;;;32.43;25.04;101545.94;4992190;28;20681;-67
2022/09/21 10:38:28;;;;;;;0.40;0.30;;;30.40;45.30;;;30.16;27.54;101538.13;5007689;28;20720;-65
2022/09/21 10:40:55;;;;;;;0.40;0.30;;;28.50;47.20;;;28.43;29.21;101533.53;4986956;28;20716;-64
2022/09/21 10:43:24;;;;;;;0.40;0.30;;;27.00;48.70;;;27.34;31.13;101528.41;4991368;28;20634;-66
2022/09/21 10:45:55;;;;;;;0.40;0.33;;;26.00;50.30;;;26.29;33.24;101526.72;4993485;28;20618;-64
2022/09/21 10:48:25;;;;;;;0.50;0.50;;;25.10;52.10;;;25.53;34.53;101522.75;5006542;28;20638;-65
2022/09/21 10:50:54;;;;;;;0.40;0.30;;;24.30;54.00;;;24.88;36.65;101522.59;5006800;28;21067;-64
2022/09/21 10:53:29;;;;;;;0.40;0.30;;;23.80;55.70;;;23.83;37.92;101523.31;4993524;28;20634;-65
2022/09/21 10:56:17;;;;;;;0.40;0.30;;;23.00;56.50;;;23.10;39.51;101522.75;4993037;28;20677;-65
2022/09/21 10:59:26;;;;;;;0.40;0.30;;;22.30;58.50;;;22.85;40.33;101518.44;4990719;28;20678;-65
2022/09/21 11:01:57;;;;;;;0.30;0.30;;;21.80;59.50;;;22.21;41.82;101513.13;4976237;28;20610;-65
2022/09/21 11:04:46;;;;;;;0.30;0.30;;;21.30;61.00;;;21.92;42.14;101515.38;4992391;28;20962;-65
2022/09/21 11:07:21;;;;;;;0.30;0.30;;;21.00;61.70;;;21.61;42.55;101515.91;4992753;28;21216;-65
2022/09/21 11:09:59;;;;;;;0.30;0.30;;;20.60;62.40;;;21.44;43.11;101518.66;4991742;28;20705;-65